Decoded Metar for KFBG (FORT BRAGG/SIMMO in NC, USA) (IATA:FBG) | Meteo·Mobile Aviation Weather
aviador You're here:

KFBG Decoded Metar

FORT BRAGG/SIMMO in NC, USA
Report Time2019-03-19 17:56:00
UTC Time2019-03-19 18:44:33
Flight Rules vfr VFR
Wind060° at 06 Gusting to 17 kt
W.Decomp.*RWY 09: 5.5 kt HW 2.3 kt LCW
W.Rank060° ranks 16
Current wind is above 060° avg. (5.8)
Visibility9999 m
Phenomena:N/A
Clouds:N/A
Expected CloudBase > 6,400 ft AGL from Temp-Dew spread
CeilingNone
Temp12°C (ISA -3)
Dew Point-4°C (33% RH)
AAT7.4°C
QNH1028 hPa
Density Alt-495 ft
Elevation243 ft
Report Wrong Elevation
Raw Report
KFBG 191756Z 06006G17KT 10SM CLR 12/M04 A3037 RMK SLP288 T01221044
57028=

Extra information for KFBG:More info

Metar Taf Metar & Taf Last 4 Metars F.Rules Stats Wind Profile Meteogram Temp Stats Airport Information Weather charts Add Link Nearby VenuesMetar ALERT Operation Metar Decoded Social comments

AIRNAV info for KFBG